M I D A S
Marine Information and Data Acquisition System
Tripno 842 of the Zeeleeuw from 2005-01-26 07:33:00 to 2005-01-26 13:04:23
Back to CruiseResearch ActivitiesStationsMapUnderway DataData graphs

EquipmentUnitsComment
TimeDGPSUTC
LatitudeDGPSDM.mWGS84
LongitudeDGPSDM.mWGS84
TemperatureSBE03/SBE38deg celciusITS90
ConductivitySBE21S/mITS90
SalinitySBE21 Practical Salinity Units
ChlorophylAChelsea fluorimeterg/lCalibrated in Aceton
Missing or incorrect values are displayed as -999
Sea surface data collected by the RV Zeeleeuw from 2005-01-26 07:33:28 to 2005-01-26 13:19:32
Time Latitude Longitude Temperature Conductivity Salinity ChlorophylA
2005-01-26 07:34:32 51°13.61 2°56.045 10.6117 0.056719 0.39395 -0.882377
2005-01-26 07:35:32 51°13.639 2°55.972 6.1259 0.300947 2.294091 0.803093
2005-01-26 07:36:33 51°13.642 2°55.968 5.5549 2.688124 26.556941 -0.646411
2005-01-26 07:37:33 51°13.669 2°55.91 5.4414 2.55149 25.39775 -0.680121
2005-01-26 07:38:33 51°13.711 2°55.784 5.3777 2.631953 26.323257 -0.612702
2005-01-26 07:39:32 51°13.722 2°55.723 5.2446 2.612284 26.193596 -0.545283
2005-01-26 07:40:33 51°13.729 2°55.727 5.2268 2.261107 22.44634 -0.376736
2005-01-26 07:41:33 51°13.785 2°55.67 5.2519 2.364853 23.566195 -0.444155
2005-01-26 07:42:33 51°13.899 2°55.573 5.2692 2.393974 23.871404 -0.444155
2005-01-26 07:43:32 51°14.031 2°55.48 5.2815 2.61786 26.321841 -0.545283
2005-01-26 07:44:33 51°14.175 2°55.369 5.2408 2.703279 27.254494 -0.511574
2005-01-26 07:45:32 51°14.3 2°55.19 5.2185 2.622909 26.421558 -0.477864
2005-01-26 07:46:33 51°14.4 2°54.956 5.0266 2.712117 27.418744 -0.241899
2005-01-26 07:47:33 51°14.455 2°54.649 4.8114 2.771145 28.336095 0.465999
2005-01-26 07:48:33 51°14.423 2°54.283 4.9633 2.959629 30.533804 2.117759
2005-01-26 07:49:33 51°14.307 2°53.951 4.9939 3.01268 31.011433 2.454853
2005-01-26 07:50:33 51°14.185 2°53.618 5.0052 3.02447 31.121885 2.791947
2005-01-26 07:51:33 51°14.061 2°53.279 4.9919 3.020049 31.072427 3.331298
2005-01-26 07:52:33 51°13.944 2°52.926 4.9872 3.005522 30.912994 2.724529
2005-01-26 07:53:32 51°13.812 2°52.58 5.0067 3.018575 31.062188 2.65711
2005-01-26 07:54:33 51°13.684 2°52.226 5.0482 3.009207 30.964612 3.971777
2005-01-26 07:55:33 51°13.566 2°51.866 5.0901 3.019627 31.013154 3.80323
2005-01-26 07:56:33 51°13.446 2°51.506 5.09 3.041313 31.23079 3.836939
2005-01-26 07:57:33 51°13.323 2°51.15 5.0841 3.043313 31.260034 4.275161
2005-01-26 07:58:33 51°13.186 2°50.801 5.0607 3.034892 31.1734 4.072905
2005-01-26 07:59:33 51°13.058 2°50.435 5.0669 3.043208 31.276837 4.140324
2005-01-26 08:00:32 51°12.933 2°50.074 5.0434 3.047841 31.343412 3.904358
2005-01-26 08:01:33 51°12.796 2°49.71 5.0497 3.046367 31.33158 3.466136
2005-01-26 08:02:32 51°12.672 2°49.351 5.0545 3.037734 31.223644 3.19646
2005-01-26 08:03:32 51°12.541 2°48.99 5.0484 3.046156 31.332469 2.926785
2005-01-26 08:04:32 51°12.41 2°48.625 5.0521 3.047525 31.340642 2.690819
2005-01-26 08:05:33 51°12.276 2°48.26 5.0468 3.052473 31.400188 3.365007
2005-01-26 08:06:32 51°12.15 2°47.895 5.0536 3.040261 31.262171 3.702101
2005-01-26 08:07:33 51°12.021 2°47.527 5.0614 3.049314 31.356062 4.106614
2005-01-26 08:08:33 51°11.896 2°47.16 5.0927 3.049104 31.347103 4.578546
2005-01-26 08:09:32 51°11.781 2°46.803 5.1135 3.058157 31.410558 5.657247
2005-01-26 08:10:33 51°11.661 2°46.44 5.1052 3.045734 31.266265 5.859503
2005-01-26 08:11:33 51°11.544 2°46.081 5.1137 3.058683 31.417357 5.522409
2005-01-26 08:12:32 51°11.436 2°45.722 5.1225 3.058683 31.407505 4.91564
2005-01-26 08:13:33 51°11.349 2°45.336 5.1186 3.067106 31.499845 5.016768
2005-01-26 08:14:32 51°11.284 2°44.954 5.1343 3.068579 31.511643 4.713383
2005-01-26 08:15:33 51°11.221 2°44.555 5.1314 3.064579 31.462111 5.151606
2005-01-26 08:16:33 51°11.154 2°44.15 5.1393 3.055946 31.355129 5.994341
2005-01-26 08:17:33 51°11.085 2°43.744 5.1476 3.075738 31.585521 4.679674
2005-01-26 08:18:33 51°11.012 2°43.338 5.1483 3.045629 31.229974 6.5674
2005-01-26 08:19:32 51°10.94 2°42.939 5.1641 2.987204 30.569481 4.477418
2005-01-26 08:20:32 51°10.867 2°42.534 5.1763 3.002994 30.725566 5.758375
2005-01-26 08:21:33 51°10.799 2°42.121 5.1872 3.002994 30.71355 3.735811
2005-01-26 08:22:33 51°10.725 2°41.711 5.1951 3.004783 30.734572 5.185315
2005-01-26 08:23:32 51°10.657 2°41.304 5.2105 3.012363 30.810596 4.005486
2005-01-26 08:24:32 51°10.589 2°40.897 5.2214 3.103743 31.82563 4.848221
2005-01-26 08:25:33 51°10.524 2°40.49 5.2313 3.107217 31.858405 4.983059
2005-01-26 08:26:33 51°10.453 2°40.096 5.235 3.10848 31.863607 5.084187
2005-01-26 08:27:32 51°10.39 2°39.709 5.256 3.110691 31.884531 4.443708
2005-01-26 08:28:33 51°10.327 2°39.305 5.3067 3.118588 31.945816 3.432426
2005-01-26 08:29:33 51°10.265 2°38.912 5.373 3.133749 32.059352 2.926785
2005-01-26 08:30:33 51°10.206 2°38.515 5.4297 3.149016 32.179635 2.522272
2005-01-26 08:31:33 51°10.143 2°38.119 5.4781 3.165757 32.314645 2.555982
2005-01-26 08:32:32 51°10.083 2°37.728 5.4968 3.17597 32.389042 2.690819
2005-01-26 08:33:33 51°10.027 2°37.323 5.5141 3.181446 32.434958 2.724529
2005-01-26 08:34:33 51°9.97 2°36.929 5.5427 3.189869 32.50993 2.690819
2005-01-26 08:35:32 51°9.914 2°36.539 5.5689 3.199346 32.591689 2.387435
2005-01-26 08:36:32 51°9.873 2°36.14 5.631 3.210298 32.682421 2.6234
2005-01-26 08:37:33 51°9.936 2°35.784 5.6821 3.224513 32.779474 2.185178
2005-01-26 08:38:32 51°10.128 2°35.722 5.702 3.232516 32.826599 2.050341
2005-01-26 08:39:32 51°10.278 2°35.908 5.7177 3.256632 33.079437 1.140187
2005-01-26 08:40:32 51°10.429 2°36.107 5.6971 3.25937 33.108568 1.173896
2005-01-26 08:41:32 51°10.587 2°36.285 5.6933 3.251156 33.0305 1.848084
2005-01-26 08:42:32 51°10.744 2°36.454 5.6871 3.246311 32.977651 2.353725
2005-01-26 08:43:33 51°10.912 2°36.613 5.6651 3.23715 32.887187 2.421144
2005-01-26 08:44:33 51°11.077 2°36.769 5.6338 3.22188 32.740567 2.65711
2005-01-26 08:45:33 51°11.236 2°36.927 5.6143 3.21651 32.704482 3.095332
2005-01-26 08:46:32 51°11.398 2°37.082 5.618 3.213456 32.680172 2.825657
2005-01-26 08:47:32 51°11.566 2°37.242 5.6216 3.214404 32.685804 2.926785
2005-01-26 08:48:32 51°11.73 2°37.402 5.6273 3.213246 32.671915 3.19646
2005-01-26 08:49:32 51°11.897 2°37.563 5.6291 3.212298 32.65704 3.095332
2005-01-26 08:50:33 51°12.063 2°37.727 5.6164 3.210508 32.63772 3.129042
2005-01-26 08:51:33 51°12.228 2°37.89 5.5945 3.206401 32.605732 3.162751
2005-01-26 08:52:33 51°12.393 2°38.048 5.5829 3.201031 32.566195 2.893076
2005-01-26 08:53:32 51°12.554 2°38.205 5.5659 3.200083 32.563901 3.19646
2005-01-26 08:54:33 51°12.728 2°38.349 5.5658 3.197029 32.542895 3.19646
2005-01-26 08:55:32 51°12.897 2°38.487 5.5613 3.198293 32.557142 3.129042
2005-01-26 08:56:32 51°13.08 2°38.599 5.541 3.196924 32.547578 2.893076
2005-01-26 08:57:32 51°13.264 2°38.698 5.5611 3.192818 32.520552 2.488563
2005-01-26 08:58:33 51°13.453 2°38.798 5.5916 3.202084 32.591489 2.151469
2005-01-26 08:59:33 51°13.64 2°38.892 5.64 3.209876 32.656642 1.982922
2005-01-26 09:00:33 51°13.835 2°38.875 5.7016 3.22704 32.789399 2.454853
2005-01-26 09:01:33 51°14.036 2°38.843 5.7203 3.236307 32.849025 3.297589
2005-01-26 09:02:33 51°14.196 2°38.639 5.7334 3.24073 32.881907 2.791947
2005-01-26 09:03:32 51°14.206 2°38.277 5.731 3.243573 32.9046 2.825657
2005-01-26 09:04:33 51°14.111 2°37.903 5.7206 3.238202 32.851806 2.387435
2005-01-26 09:05:32 51°14.026 2°37.528 5.7285 3.23757 32.841335 2.353725
2005-01-26 09:06:33 51°13.918 2°37.16 5.7476 3.23557 32.82726 2.353725
2005-01-26 09:07:33 51°13.816 2°36.79 5.7476 3.238518 32.844411 2.65711
2005-01-26 09:08:33 51°13.709 2°36.417 5.7442 3.24252 32.87675 2.589691
2005-01-26 09:09:33 51°13.611 2°36.036 5.7695 3.242099 32.88044 2.421144
2005-01-26 09:10:33 51°13.495 2°35.679 5.8049 3.250628 32.940033 2.421144
2005-01-26 09:11:32 51°13.382 2°35.326 5.8096 3.256104 32.977067 2.724529
2005-01-26 09:12:33 51°13.266 2°34.967 5.8111 3.255578 32.965254 2.724529
2005-01-26 09:13:33 51°13.146 2°34.616 5.8153 3.257263 32.981636 2.555982
2005-01-26 09:14:33 51°13.034 2°34.254 5.8139 3.257789 32.981642 2.65711
2005-01-26 09:15:33 51°12.906 2°33.915 5.8092 3.258 32.990753 2.690819
2005-01-26 09:16:33 51°12.762 2°33.58 5.8024 3.254735 32.95917 3.061623
2005-01-26 09:17:33 51°12.622 2°33.255 5.8006 3.25484 32.960352 2.65711
2005-01-26 09:18:33 51°12.492 2°32.917 5.8088 3.250839 32.922176 3.095332
2005-01-26 09:19:33 51°12.374 2°32.564 5.7887 3.250102 32.915585 2.960494
2005-01-26 09:20:33 51°12.267 2°32.209 5.7927 3.248522 32.904589 3.129042
2005-01-26 09:21:33 51°12.159 2°31.85 5.8081 3.249786 32.908672 2.926785
2005-01-26 09:22:33 51°12.065 2°31.471 5.8281 3.25126 32.919325 2.589691
2005-01-26 09:23:32 51°11.973 2°31.097 5.8325 3.256736 32.963927 2.218888
2005-01-26 09:24:33 51°11.875 2°30.711 5.8381 3.258947 32.977782 1.915503
2005-01-26 09:25:33 51°11.783 2°30.329 5.8557 3.261369 32.997364 1.713247
2005-01-26 09:26:33 51°11.685 2°29.951 5.869 3.265687 33.028919 1.612118
2005-01-26 09:27:33 51°11.59 2°29.565 5.942 3.267583 33.037522 1.578409
2005-01-26 09:28:32 51°11.495 2°29.19 6.0052 3.288118 33.183974 1.5447
2005-01-26 09:29:33 51°11.401 2°28.797 6.0076 3.299598 33.265905 1.5447
2005-01-26 09:30:33 51°11.309 2°28.404 6.0107 3.299703 33.268773 1.477281
2005-01-26 09:31:33 51°11.241 2°28.003 6.0475 3.305285 33.307492 1.477281
2005-01-26 09:32:33 51°11.18 2°27.601 6.0838 3.311288 33.352572 1.477281
2005-01-26 09:33:33 51°11.116 2°27.205 6.1031 3.320134 33.413271 1.342443
2005-01-26 09:34:33 51°11.053 2°26.816 6.1272 3.324347 33.441658 1.376153
2005-01-26 09:35:33 51°10.988 2°26.426 6.1493 3.330456 33.487781 1.376153
2005-01-26 09:36:33 51°10.925 2°26.042 6.2044 3.338249 33.54417 1.342443
2005-01-26 09:37:33 51°10.91 2°25.655 6.2962 3.352046 33.641896 1.241315
2005-01-26 09:38:33 51°10.986 2°25.311 6.3611 3.373743 33.78899 1.376153
2005-01-26 09:39:32 51°11.171 2°25.174 6.3299 3.385119 33.872006 1.342443
2005-01-26 09:40:32 51°11.365 2°25.258 6.3093 3.382381 33.872239 1.207606
2005-01-26 09:41:33 51°11.539 2°25.41 6.3149 3.375639 33.816026 1.140187
2005-01-26 09:42:33 51°11.71 2°25.563 6.3158 3.376693 33.819225 1.072768
2005-01-26 09:43:33 51°11.877 2°25.732 6.3124 3.375323 33.809108 1.072768
2005-01-26 09:44:32 51°12.038 2°25.894 6.2867 3.372901 33.787276 1.072768
2005-01-26 09:45:33 51°12.205 2°26.078 6.2727 3.367635 33.751669 1.072768
2005-01-26 09:46:33 51°12.369 2°26.259 6.2509 3.363843 33.725637 0.93793
2005-01-26 09:47:32 51°12.526 2°26.451 6.218 3.358577 33.688272 0.93793
2005-01-26 09:48:33 51°12.682 2°26.65 6.2027 3.352257 33.646791 1.039059
2005-01-26 09:49:32 51°12.827 2°26.836 6.2091 3.350256 33.632993 1.039059
2005-01-26 09:50:33 51°12.981 2°27.03 6.1989 3.349519 33.623082 1.072768
2005-01-26 09:51:32 51°13.131 2°27.225 6.1874 3.346359 33.594674 1.106477
2005-01-26 09:52:33 51°13.286 2°27.425 6.1453 3.339724 33.542796 1.039059
2005-01-26 09:53:33 51°13.434 2°27.615 6.1351 3.328875 33.451529 1.173896
2005-01-26 09:54:33 51°13.591 2°27.81 6.1122 3.321819 33.393995 1.241315
2005-01-26 09:55:32 51°13.74 2°28.002 6.1095 3.315921 33.340894 1.241315
2005-01-26 09:56:33 51°13.89 2°28.197 6.0998 3.312867 33.306832 1.207606
2005-01-26 09:57:33 51°14.038 2°28.385 6.103 3.308865 33.269791 1.275024
2005-01-26 09:58:32 51°14.19 2°28.577 6.0787 3.3056 33.242648 1.308734
2005-01-26 09:59:33 51°14.345 2°28.77 6.0747 3.301071 33.205607 1.241315
2005-01-26 10:00:32 51°14.494 2°28.96 6.0745 3.298754 33.188174 1.173896
2005-01-26 10:01:33 51°14.651 2°29.158 6.0857 3.300123 33.197558 1.207606
2005-01-26 10:02:32 51°14.802 2°29.353 6.0843 3.301282 33.203748 1.106477
2005-01-26 10:03:33 51°14.957 2°29.548 6.0829 3.300545 33.197208 1.039059
2005-01-26 10:04:33 51°15.108 2°29.743 6.0856 3.299597 33.187477 1.039059
2005-01-26 10:05:32 51°15.257 2°29.942 6.1082 3.30065 33.189129 1.072768
2005-01-26 10:06:33 51°15.41 2°30.144 6.1025 3.302545 33.199333 1.039059
2005-01-26 10:07:32 51°15.556 2°30.337 6.0985 3.301071 33.187099 1.140187
2005-01-26 10:08:32 51°15.705 2°30.533 6.0969 3.299386 33.171674 1.039059
2005-01-26 10:09:33 51°15.86 2°30.737 6.1047 3.299912 33.175864 1.072768
2005-01-26 10:10:32 51°16.006 2°30.936 6.1148 3.300544 33.172824 1.039059
2005-01-26 10:11:32 51°16.161 2°31.141 6.1284 3.301597 33.172801 1.072768
2005-01-26 10:12:33 51°16.313 2°31.346 6.1355 3.303072 33.177471 0.97164
2005-01-26 10:13:33 51°16.466 2°31.549 6.1431 3.304019 33.182991 0.97164
2005-01-26 10:14:33 51°16.616 2°31.753 6.1443 3.304441 33.180967 0.97164
2005-01-26 10:15:33 51°16.77 2°31.956 6.1404 3.303809 33.17393 1.039059
2005-01-26 10:16:33 51°16.931 2°32.144 6.1418 3.303282 33.168905 0.97164
2005-01-26 10:17:33 51°17.091 2°32.335 6.1348 3.302018 33.160704 1.039059
2005-01-26 10:18:33 51°17.248 2°32.524 6.1373 3.300649 33.147973 0.97164
2005-01-26 10:19:33 51°17.398 2°32.703 6.1353 3.300965 33.147298 0.97164
2005-01-26 10:20:33 51°17.551 2°32.887 6.1465 3.301281 33.149139 1.039059
2005-01-26 10:21:32 51°17.711 2°33.077 6.1709 3.303809 33.16554 1.106477
2005-01-26 10:22:33 51°17.874 2°33.273 6.191 3.308232 33.193802 1.173896
2005-01-26 10:23:32 51°18.031 2°33.467 6.2313 3.313498 33.226376 1.140187
2005-01-26 10:24:33 51°18.195 2°33.664 6.2446 3.319185 33.258563 1.207606
2005-01-26 10:25:33 51°18.353 2°33.861 6.2692 3.322028 33.270027 1.140187
2005-01-26 10:26:32 51°18.503 2°34.044 6.2735 3.325293 33.288677 1.241315
2005-01-26 10:27:32 51°18.657 2°34.233 6.2802 3.326136 33.296355 1.106477
2005-01-26 10:28:33 51°18.812 2°34.424 6.2801 3.326452 33.294831 1.140187
2005-01-26 10:29:33 51°18.966 2°34.614 6.2831 3.326241 33.289138 1.039059
2005-01-26 10:30:33 51°19.125 2°34.804 6.2991 3.326767 33.287438 1.005349
2005-01-26 10:31:32 51°19.278 2°34.992 6.3191 3.328031 33.28973 1.140187
2005-01-26 10:32:33 51°19.437 2°35.184 6.3448 3.33098 33.298985 1.376153
2005-01-26 10:33:33 51°19.593 2°35.376 6.3613 3.334455 33.314907 1.241315
2005-01-26 10:34:33 51°19.747 2°35.566 6.3728 3.337194 33.330182 1.072768
2005-01-26 10:35:33 51°19.902 2°35.768 6.388 3.339827 33.349306 0.93793
2005-01-26 10:36:33 51°20.005 2°36.039 6.3907 3.342565 33.362049 0.836802
2005-01-26 10:37:33 51°20.083 2°36.346 6.3801 3.342249 33.363575 0.870512
2005-01-26 10:38:33 51°20.17 2°36.65 6.3643 3.340459 33.352956 0.769383
2005-01-26 10:39:32 51°20.253 2°36.945 6.3474 3.337615 33.341552 0.735674
2005-01-26 10:40:33 51°20.341 2°37.245 6.327 3.334772 33.325111 0.600836
2005-01-26 10:41:33 51°20.43 2°37.545 6.3138 3.331612 33.305994 0.668255
2005-01-26 10:42:32 51°20.478 2°37.869 6.2979 3.328663 33.280825 0.769383
2005-01-26 10:43:32 51°20.475 2°38.21 6.274 3.324977 33.26589 0.803093
2005-01-26 10:44:32 51°20.456 2°38.55 6.245 3.321712 33.253942 0.769383
2005-01-26 10:45:32 51°20.436 2°38.89 6.223 3.317394 33.233634 0.870512
2005-01-26 10:46:32 51°20.42 2°39.232 6.2048 3.314551 33.217958 0.803093
2005-01-26 10:47:32 51°20.415 2°39.572 6.1916 3.312128 33.204441 0.904221
2005-01-26 10:48:32 51°20.416 2°39.912 6.1762 3.308864 33.188252 0.904221
2005-01-26 10:49:32 51°20.413 2°40.259 6.158 3.306968 33.1789 1.005349
2005-01-26 10:50:33 51°20.4 2°40.606 6.146 3.304019 33.162852 1.039059
2005-01-26 10:51:32 51°20.389 2°40.944 6.129 3.30244 33.157845 1.039059
2005-01-26 10:52:33 51°20.375 2°41.295 6.125 3.299701 33.139933 1.140187
2005-01-26 10:53:33 51°20.355 2°41.635 6.1125 3.298648 33.139945 1.342443
2005-01-26 10:54:32 51°20.339 2°41.977 6.1113 3.297911 33.134249 1.241315
2005-01-26 10:55:33 51°20.316 2°42.33 6.088 3.296331 33.124197 1.140187
2005-01-26 10:56:33 51°20.297 2°42.678 6.0703 3.292435 33.100898 0.93793
2005-01-26 10:57:33 51°20.277 2°43.026 6.062 3.286853 33.052921 0.803093
2005-01-26 10:58:33 51°20.256 2°43.373 6.05 3.288644 33.083788 0.836802
2005-01-26 10:59:32 51°20.235 2°43.712 6.0418 3.287696 33.079928 0.836802
2005-01-26 11:00:32 51°20.213 2°44.057 6.024 3.246624 32.637888 0.769383
2005-01-26 11:01:32 51°20.193 2°44.404 5.9842 3.247466 32.672979 0.803093
2005-01-26 11:02:33 51°20.175 2°44.756 5.9304 3.242096 32.646273 0.836802
2005-01-26 11:03:33 51°20.16 2°45.105 5.8797 3.262106 32.92658 0.904221
2005-01-26 11:04:32 51°20.142 2°45.454 5.8562 3.254734 32.891884 0.93793
2005-01-26 11:05:33 51°20.124 2°45.814 5.859 3.252944 32.877705 1.005349
2005-01-26 11:06:32 51°20.107 2°46.162 5.8633 3.254629 32.890705 1.005349
2005-01-26 11:07:33 51°20.087 2°46.522 5.8321 3.25326 32.88544 1.039059
2005-01-26 11:08:33 51°20.036 2°46.865 5.7952 3.247258 32.845866 1.039059
2005-01-26 11:09:33 51°19.947 2°47.196 5.7693 3.23936 32.798405 1.072768
2005-01-26 11:10:33 51°19.857 2°47.532 5.7405 3.236095 32.776034 1.207606
2005-01-26 11:11:33 51°19.771 2°47.862 5.6626 3.228409 32.750966 1.173896
2005-01-26 11:12:33 51°19.663 2°48.18 5.6081 3.217457 32.685737 1.173896
2005-01-26 11:13:33 51°19.531 2°48.48 5.5801 3.209034 32.637067 1.308734
2005-01-26 11:14:33 51°19.398 2°48.778 5.5733 3.20619 32.619307 1.241315
2005-01-26 11:15:33 51°19.273 2°49.085 5.5678 3.206296 32.628053 1.241315
2005-01-26 11:16:33 51°19.146 2°49.392 5.5192 3.208928 32.658571 1.679537
2005-01-26 11:17:33 51°19.017 2°49.698 5.4657 3.205138 32.680643 1.578409
2005-01-26 11:18:33 51°18.866 2°49.987 5.4466 3.198083 32.643092 1.848084
2005-01-26 11:19:33 51°18.684 2°50.225 5.4068 3.192397 32.605779 1.848084
2005-01-26 11:20:33 51°18.5 2°50.446 5.4134 3.187554 32.571212 1.848084
2005-01-26 11:21:33 51°18.317 2°50.684 5.4277 3.18787 32.571414 1.713247
2005-01-26 11:22:33 51°18.132 2°50.922 5.4491 3.191976 32.603544 1.848084
2005-01-26 11:23:33 51°17.95 2°51.16 5.4361 3.203454 32.71396 1.5447
2005-01-26 11:24:33 51°17.768 2°51.395 5.4012 3.201138 32.71482 1.612118
2005-01-26 11:25:33 51°17.585 2°51.635 5.3514 3.189239 32.608002 1.814375
2005-01-26 11:26:33 51°17.414 2°51.891 5.3188 3.169443 32.43182 2.421144
2005-01-26 11:27:33 51°17.24 2°52.147 5.2681 3.155228 32.307695 2.252597
2005-01-26 11:28:33 51°17.063 2°52.392 5.2341 3.143331 32.210507 2.353725
2005-01-26 11:29:33 51°16.907 2°52.671 5.2209 3.130907 32.101348 2.252597
2005-01-26 11:30:33 51°16.788 2°52.989 5.2114 3.1248 32.042908 2.589691
2005-01-26 11:31:33 51°16.739 2°53.345 5.2049 3.121747 32.022437 3.162751
2005-01-26 11:32:33 51°16.769 2°53.705 5.1742 3.120273 32.009876 3.297589
2005-01-26 11:33:33 51°16.843 2°54.046 5.1557 3.113851 31.966964 3.297589
2005-01-26 11:34:33 51°16.94 2°54.375 5.1487 3.110903 31.949311 3.331298
2005-01-26 11:35:33 51°17.036 2°54.705 5.1232 3.107639 31.919723 3.129042
2005-01-26 11:36:33 51°17.128 2°55.039 5.1138 3.10427 31.904755 2.859366
2005-01-26 11:37:33 51°17.222 2°55.377 5.1015 3.105428 31.925428 3.162751
2005-01-26 11:38:33 51°17.314 2°55.714 5.1026 3.103533 31.913046 2.825657
2005-01-26 11:39:33 51°17.413 2°56.047 5.0966 3.103428 31.91435 2.859366
2005-01-26 11:40:33 51°17.513 2°56.381 5.0855 3.10406 31.925709 2.65711
2005-01-26 11:41:33 51°17.619 2°56.717 5.0864 3.103849 31.927486 2.016631
2005-01-26 11:42:32 51°17.73 2°57.041 5.1033 3.111851 32.011866 1.915503
2005-01-26 11:43:33 51°17.843 2°57.374 5.1079 3.115641 32.049146 1.982922
2005-01-26 11:44:33 51°17.958 2°57.706 5.1118 3.118484 32.074798 1.848084
2005-01-26 11:45:33 51°18.07 2°58.038 5.1101 3.118589 32.079349 1.814375
2005-01-26 11:46:32 51°18.179 2°58.366 5.1065 3.119431 32.090613 1.612118
2005-01-26 11:47:33 51°18.293 2°58.705 5.1075 3.120379 32.096368 1.5447
2005-01-26 11:48:32 51°18.395 2°59.047 5.1038 3.114588 32.034652 1.578409
2005-01-26 11:49:33 51°18.489 2°59.405 5.103 3.110903 32.000244 1.578409
2005-01-26 11:50:33 51°18.574 2°59.762 5.1127 3.103954 31.914501 1.612118
2005-01-26 11:51:33 51°18.641 3°0.135 5.136 3.104165 31.900226 1.645828
2005-01-26 11:52:33 51°18.668 3°0.512 5.1577 3.105954 31.901414 1.679537
2005-01-26 11:53:33 51°18.679 3°0.9 5.1672 3.110797 31.940614 1.612118
2005-01-26 11:54:33 51°18.69 3°1.287 5.1593 3.112482 31.954751 1.713247
2005-01-26 11:55:32 51°18.706 3°1.667 5.1282 3.108376 31.924766 1.746956
2005-01-26 11:56:32 51°18.768 3°2.041 5.1028 3.0989 31.845375 1.713247
2005-01-26 11:57:33 51°18.888 3°2.386 5.1008 3.091215 31.777942 1.746956
2005-01-26 11:58:33 51°19.01 3°2.72 5.0979 3.091741 31.78559 1.679537
2005-01-26 11:59:32 51°19.106 3°3.067 5.1343 3.092268 31.779947 1.713247
2005-01-26 12:00:33 51°18.999 3°3.399 5.1158 3.096584 31.812399 1.679537
2005-01-26 12:01:33 51°18.802 3°3.47 5.1 3.099322 31.84933 1.645828
2005-01-26 12:02:33 51°18.64 3°3.268 5.0813 3.098585 31.867588 1.679537
2005-01-26 12:03:33 51°18.518 3°3.004 5.0729 3.091004 31.786348 1.814375
2005-01-26 12:04:33 51°18.397 3°2.736 5.0425 3.085319 31.740777 1.949212
2005-01-26 12:05:33 51°18.277 3°2.472 5.0184 3.078582 31.684017 2.117759
2005-01-26 12:06:33 51°18.157 3°2.213 4.9991 3.070581 31.624427 2.117759
2005-01-26 12:07:33 51°18.052 3°1.936 5.0019 3.071844 31.64545 1.949212
2005-01-26 12:08:33 51°17.943 3°1.663 5.0278 3.074687 31.669533 1.949212
2005-01-26 12:09:33 51°17.843 3°1.383 5.0395 3.079108 31.685861 1.814375
2005-01-26 12:10:33 51°17.741 3°1.107 4.9859 3.078582 31.703107 1.814375
2005-01-26 12:11:33 51°17.632 3°0.834 4.9837 3.080688 31.757872 1.612118
2005-01-26 12:12:33 51°17.531 3°0.562 4.9524 3.081951 31.793954 1.780665
2005-01-26 12:13:33 51°17.433 3°0.283 4.9494 3.078582 31.763855 1.848084
2005-01-26 12:14:33 51°17.334 3°0.002 4.9434 3.073634 31.711561 1.814375
2005-01-26 12:15:33 51°17.233 2°59.73 4.9378 3.073634 31.714059 1.848084
2005-01-26 12:16:33 51°17.134 2°59.453 4.9408 3.069634 31.675068 1.949212
2005-01-26 12:17:33 51°17.031 2°59.176 4.9507 3.070055 31.672388 1.881794
2005-01-26 12:18:33 51°16.928 2°58.9 4.9557 3.070055 31.669893 1.881794
2005-01-26 12:19:33 51°16.824 2°58.629 4.9532 3.068054 31.644584 1.814375
2005-01-26 12:20:33 51°16.73 2°58.352 4.9551 3.066581 31.622794 1.949212
2005-01-26 12:21:33 51°16.636 2°58.07 4.9659 3.053105 31.470014 1.814375
2005-01-26 12:22:33 51°16.543 2°57.793 4.9594 3.052894 31.455231 1.848084
2005-01-26 12:23:33 51°16.446 2°57.515 4.9715 3.053105 31.462582 1.915503
2005-01-26 12:24:33 51°16.352 2°57.235 4.9694 3.052157 31.451788 2.016631
2005-01-26 12:25:33 51°16.257 2°56.953 4.9723 3.051947 31.444439 2.016631
2005-01-26 12:26:32 51°16.163 2°56.673 4.9813 3.052157 31.442713 1.982922
2005-01-26 12:27:33 51°16.069 2°56.392 4.9828 3.053631 31.447951 1.915503
2005-01-26 12:28:34 51°16.047 2°56.232 4.9793 3.056474 31.478665 1.949212
2005-01-26 12:29:33 51°16.069 2°56.188 4.9828 3.054894 31.469761 1.881794
2005-01-26 12:30:33 51°16.081 2°56.2 4.9843 3.055842 31.478901 1.746956
2005-01-26 12:31:33 51°16.09 2°56.215 4.9836 3.055105 31.468032 1.780665
2005-01-26 12:32:33 51°16.096 2°56.232 4.9901 3.055316 31.47043 1.780665
2005-01-26 12:33:33 51°16.099 2°56.251 4.9846 3.056895 31.482635 1.780665
2005-01-26 12:34:33 51°16.101 2°56.274 4.9866 3.056158 31.472593 1.746956
2005-01-26 12:35:33 51°16.104 2°56.297 4.9925 3.057105 31.485858 1.746956
2005-01-26 12:36:34 51°16.107 2°56.319 4.9883 3.057105 31.485032 1.780665
2005-01-26 12:37:34 51°16.111 2°56.341 4.988 3.05721 31.487882 1.780665
2005-01-26 12:38:34 51°16.116 2°56.363 4.9897 3.056895 31.484286 1.780665
2005-01-26 12:39:33 51°16.121 2°56.382 4.9872 3.057105 31.485032 1.780665
2005-01-26 12:40:33 51°16.128 2°56.401 4.996 3.056789 31.482261 1.780665
2005-01-26 12:41:33 51°16.134 2°56.421 4.9895 3.05721 31.482929 1.746956
2005-01-26 12:42:33 51°16.139 2°56.442 4.991 3.057 31.482183 1.780665
2005-01-26 12:43:33 51°16.144 2°56.462 4.9916 3.05721 31.48458 1.746956
2005-01-26 12:44:34 51°16.148 2°56.484 4.9957 3.056895 31.481809 1.814375
2005-01-26 12:45:33 51°16.152 2°56.506 4.9899 3.056789 31.484738 1.814375
2005-01-26 12:46:33 51°16.155 2°56.528 4.9868 3.056052 31.47387 1.881794
2005-01-26 12:47:33 51°16.16 2°56.55 4.992 3.05721 31.479628 1.814375
2005-01-26 12:48:33 51°16.165 2°56.572 4.9855 3.057105 31.485032 1.780665
2005-01-26 12:49:34 51°16.168 2°56.595 4.9873 3.056263 31.477918 1.814375
2005-01-26 12:50:33 51°16.171 2°56.617 4.9924 3.056579 31.48234 1.780665
2005-01-26 12:51:33 51°16.174 2°56.638 4.9851 3.056579 31.483991 1.814375
2005-01-26 12:52:33 51°16.176 2°56.659 4.993 3.056368 31.479942 1.848084
2005-01-26 12:53:33 51°16.189 2°56.649 4.985 3.055947 31.475147 1.814375
2005-01-26 12:54:33 51°16.155 2°56.507 4.9846 3.055316 31.474557 1.881794
2005-01-26 12:55:34 51°15.992 2°56.336 4.9986 3.055737 31.466149 1.949212
2005-01-26 12:56:33 51°15.841 2°56.125 4.991 3.056263 31.465543 2.016631
2005-01-26 12:57:33 51°15.691 2°55.908 5.0044 3.054894 31.445844 1.949212
2005-01-26 12:58:33 51°15.538 2°55.695 5.0062 3.054789 31.441351 2.08405
2005-01-26 12:59:33 51°15.387 2°55.484 4.9991 3.055105 31.449889 2.050341
2005-01-26 13:00:33 51°15.236 2°55.272 4.9986 3.055105 31.449065 1.982922
2005-01-26 13:01:33 51°15.081 2°55.064 5.0029 3.055105 31.447417 2.016631
2005-01-26 13:02:34 51°14.906 2°54.894 4.9991 3.05321 31.426676 2.08405
2005-01-26 13:03:32 51°14.717 2°54.799 4.9864 3.05142 31.412074 2.117759
2005-01-26 13:04:32 51°14.513 2°54.854 4.9891 3.044788 31.354687 1.881794
2005-01-26 13:05:33 51°14.359 2°55.071 4.9711 3.043525 31.340307 1.915503
2005-01-26 13:06:34 51°14.232 2°55.307 4.8024 3.006575 30.974516 2.050341
2005-01-26 13:07:32 51°14.105 2°55.427 4.7943 2.839964 29.193838 2.117759
2005-01-26 13:08:33 51°13.986 2°55.514 4.8566 2.747261 28.127147 1.848084
2005-01-26 13:09:32 51°13.877 2°55.6 4.8683 2.671827 27.223165 1.679537
2005-01-26 13:10:34 51°13.772 2°55.706 4.8711 2.648474 26.982852 1.780665
2005-01-26 13:11:32 51°13.691 2°55.837 4.9515 2.576211 26.156845 1.915503
2005-01-26 13:12:33 51°13.634 2°55.978 5.0284 2.514055 25.390539 1.814375
2005-01-26 13:13:32 51°13.602 2°56.079 5.1165 2.523099 25.440851 1.578409
2005-01-26 13:14:33 51°13.595 2°56.1 5.1737 2.377469 23.737306 1.578409
2005-01-26 13:15:33 51°13.594 2°56.105 5.1831 2.543605 25.554446 1.443571
2005-01-26 13:16:33 51°13.593 2°56.105 5.2004 2.57421 25.898444 1.409862
2005-01-26 13:17:33 51°13.593 2°56.105 5.1822 2.578943 25.946036 1.409862
2005-01-26 13:18:33 51°13.594 2°56.106 5.1746 2.58294 25.986838 1.443571